Nearby METAR Reports

 

LIRQ - Firenze, Italy
Distance from station: NNO 20km
aktuell: 16/10/2018 22:50
stark bewölkt
stark bewölkt
 Wind von SW
Wind: SW 7 km/h
Temperatur: 20°C
Taupunkt: 15°C
Luftfeuchte: 73%
Luftdruck: 1018 hPa
Clouds: stark bewölkt
Visibility: 10 km
Cloud details: stark bewölkt 2134 m
2018/10/16 20:50 LIRQ 162050Z 22004KT 9999 BKN070 20/15 Q1018
LIRP - Pisa, Italy
Distance from station: W 55km
aktuell: 16/10/2018 23:15
stark bewölkt
stark bewölkt
 Wind von SSO
Wind: SSO 13 km/h
Temperatur: 18°C
Taupunkt: 17°C
Luftfeuchte: 94%
Luftdruck: 1018 hPa
Clouds: stark bewölkt
Visibility: 10 km
Cloud details: stark bewölkt 1524 m
2018/10/16 21:15 LIRP 162115Z 15007KT 9999 BKN050 18/17 Q1018 NOSIG
 
LIVC - Monte Cimone, Italy
Distance from station: NNW 69km
aktuell: 16/10/2018 22:55
sehr leichter Niederschlag, Fog
sehr leichter Niederschlag, Fog
 Wind von O
Wind: O 41 km/h
Temperatur: 6°C
Wind Chill: 1°C
Taupunkt: 5°C
Luftfeuchte: 93%
Luftdruck: 1025 hPa
Zusammenfassung: sehr leichter Niederschlag, Fog
Visibility: 0 km
2018/10/16 20:55 LIVC 162055Z 10022KT 0000 -RA FG VV/// 06/05 Q1025 RMK MON INVIS VAL INVIS VIS MIN 0000
LIRS - Grosseto, Italy
Distance from station: S 98km
aktuell: 16/10/2018 22:55
teilweise bewölkt
teilweise bewölkt
 Wind von NNO
Wind: NNO 4 km/h
Temperatur: 18°C
Taupunkt: 16°C
Luftfeuchte: 88%
Luftdruck: 1017 hPa
Clouds: teilweise bewölkt
Visibility: 10 km
Cloud details: Few Clouds 914 m
teilweise bewölkt 1829 m
2018/10/16 20:55 LIRS 162055Z 02002KT 9999 FEW030 SCT060 18/16 Q1017